Flight Track Log - Related Links

Times and Time Zones

All times are in EST time to prevent confusion due to time zone crossing. See the N6ZQ flight status page for this flight to view local times or setup timezone preferences in your user account.

Time Position Orientation Groundspeed Altitude Reporting Facility
EST Latitude Longitude Course Direction KTS MPH feet Rate Location/Type
Mon 02:44:23 PM 27.7667 -82.6167 90° East 105 121 200  Level Tampa TRACON
Mon 02:44:53 PM 27.7667 -82.6000 90° East 118 136 1,000 1,000 Climbing Tampa TRACON
Mon 02:45:53 PM 27.7333 -82.6333 222° Southwest 171 197 1,700 350 Climbing Tampa TRACON
Mon 02:46:53 PM 27.7333 -82.7000 270° West 206 237 1,700  Level Tampa TRACON
Mon 02:47:54 PM 27.7500 -82.7500 291° West 191 220 1,700 650 Level Tampa TRACON
Mon 02:48:53 PM 27.7833 -82.7833 319° Northwest 170 196 3,000 1,210 Climbing Tampa TRACON
Mon 02:49:53 PM 27.8333 -82.7833 360° North 165 190 4,100 1,240 Climbing Tampa TRACON
Mon 02:50:54 PM 27.8833 -82.8000 344° North 154 177 5,500 992 Climbing Tampa TRACON
Mon 02:51:54 PM 27.9333 -82.7833 16° North 176 203 6,100 300 Climbing Tampa TRACON
Mon 02:52:54 PM 27.9833 -82.7833 360° North 198 228 6,100  Level Tampa TRACON
Mon 02:53:48 PM 28.0333 -82.7833 360° North 191 220 6,100 300 Level Tampa TRACON
Mon 02:54:54 PM 28.0833 -82.7833 360° North 172 198 6,700 619 Climbing Tampa TRACON
Mon 02:55:54 PM 28.1333 -82.7833 360° North 169 194 7,400 700 Climbing Tampa TRACON
Mon 02:56:54 PM 28.1833 -82.7833 360° North 170 196 8,100 350 Climbing Tampa TRACON
Mon 02:57:54 PM 28.2333 -82.7833 360° North 196 226 8,100  Level Tampa TRACON
Mon 02:58:54 PM 28.2833 -82.7833 360° North 196 226 8,100 263 Level Tampa TRACON
Mon 02:59:48 PM 28.3333 -82.7833 360° North 173 199 8,600 526 Climbing Tampa TRACON
Mon 03:00:48 PM 28.3833 -82.7667 16° North 177 204 9,100 250 Climbing Tampa TRACON
Mon 03:01:48 PM 28.4333 -82.7667 360° North 184 212 9,100  Level Tampa TRACON
Mon 03:02:48 PM 28.4833 -82.7333 30° Northeast 217 250 9,100 300 Level Tampa TRACON
Mon 03:03:48 PM 28.5333 -82.7000 30° Northeast 203 234 9,700 500 Climbing Tampa TRACON
Mon 03:04:48 PM 28.5667 -82.6667 41° Northeast 182 209 10,100 190 Climbing Tampa TRACON
Mon 03:05:54 PM 28.6167 -82.6333 30° Northeast 207 238 10,100  Level Tampa TRACON
Mon 03:07:33 PM 28.7047 -82.5753 30° Northeast 213 245 10,100  Level Jacksonville Center
Mon 03:08:34 PM 28.7547 -82.5397 32° Northeast 214 246 10,100 -49 Level Jacksonville Center
Mon 03:09:35 PM 28.8047 -82.5017 34° Northeast 213 245 10,000 -51 Descending Jacksonville Center
Mon 03:10:31 PM 28.8506 -82.4683 32° Northeast 212 244 10,000  Level Jacksonville Center
Mon 03:11:37 PM 28.9108 -82.4561 10° North 188 216 10,000  Level Jacksonville Center
Mon 03:12:38 PM 28.9631 -82.4653 351° North 181 208 10,000  Level Jacksonville Center
Mon 03:13:33 PM 29.0111 -82.4675 358° North 186 214 10,000  Level Jacksonville Center
Mon 03:14:34 PM 29.0614 -82.4744 353° North 189 217 10,000  Level Jacksonville Center
Mon 03:15:35 PM 29.1133 -82.4789 356° North 187 215 10,000  Level Jacksonville Center
Mon 03:16:42 PM 29.1739 -82.4836 356° North 187 215 10,000  Level Jacksonville Center
Mon 03:17:43 PM 29.2242 -82.4881 356° North 187 215 10,000  Level Jacksonville Center
Mon 03:18:38 PM 29.2722 -82.4903 358° North 187 215 10,000 -188 Level Jacksonville Center
Mon 03:19:19 PM 29.3033 -82.4925 356° North 188 216 9,700 -441 Descending Jacksonville Center
Mon 03:19:46 PM 29.3328 -82.4972 352° North 197 227 9,500 -500 Descending Jacksonville Center
Mon 03:20:19 PM 29.3597 -82.4969 North 203 234 9,200 -492 Descending Jacksonville Center
Mon 03:20:47 PM 29.3933 -82.5042 349° North 205 236 9,000 -500 Descending Jacksonville Center
Mon 03:21:19 PM 29.4161 -82.5039 North 206 237 8,700 -545 Descending Jacksonville Center
Mon 03:21:42 PM 29.4456 -82.5086 352° North 203 234 8,500 -500 Descending Jacksonville Center
Mon 03:22:19 PM 29.4706 -82.5086 360° North 206 237 8,200 -433 Descending Jacksonville Center
Mon 03:23:19 PM 29.5247 -82.5131 356° North 212 244 7,800 -450 Descending Jacksonville Center
Mon 03:24:19 PM 29.5811 -82.5200 354° North 207 238 7,300 -500 Descending Jacksonville Center
Mon 03:25:19 PM 29.6333 -82.5247 356° North 196 226 6,800 -550 Descending Jacksonville Center
Mon 03:26:19 PM 29.6875 -82.5078 15° North 196 226 6,200 -600 Descending Jacksonville Center
Mon 03:27:19 PM 29.7397 -82.4883 18° North 196 226 5,600 -600 Descending Jacksonville Center
Mon 03:28:19 PM 29.7939 -82.4714 15° North 196 226 5,000 -600 Descending Jacksonville Center
Mon 03:29:19 PM 29.8481 -82.4494 19° North 202 232 4,400 -500 Descending Jacksonville Center
Mon 03:30:19 PM 29.9025 -82.4303 17° North 202 232 4,000 -450 Descending Jacksonville Center
Mon 03:31:19 PM 29.9503 -82.4131 17° North 196 226 3,500 -600 Descending Jacksonville Center
Mon 03:32:19 PM 30.0003 -82.3961 16° North 191 220 2,800 -700 Descending Jacksonville Center
Mon 03:33:19 PM 30.0506 -82.3789 17° North 186 214 2,100 -400 Descending Jacksonville Center
Mon 03:34:19 PM 30.0964 -82.3644 15° North 180 207 2,000 -50 Descending Jacksonville Center
Mon 03:35:19 PM 30.1358 -82.3617 North 167 192 2,000  Level Jacksonville Center
Mon 03:36:19 PM 30.1631 -82.3783 332° Northwest 140 161 2,000 -100 Level Jacksonville Center
Mon 03:37:19 PM 30.1656 -82.4242 274° West 107 123 1,800 -100 Descending Jacksonville Center
Mon 03:38:19 PM 30.1719 -82.4672 280° West 119 137 1,800 -300 Level Jacksonville Center
Mon 03:39:19 PM 30.1742 -82.5081 274° West 132 152 1,200 -550 Descending Jacksonville Center
Mon 03:40:19 PM 30.1783 -82.5514 276° West 132 152 700 -500 Descending Jacksonville Center
Mon 03:42:00 PM 30.1667 -82.5667 300° West  Level FlightAware Approximate

Login

Don't have an account? Register now (free) for customized features, flight alerts, and more!